sensor_id;sensor_type;location;lat;lon;timestamp;P1;durP1;ratioP1;P2;durP2;ratioP2
21810;SDS011;11067;48.788;9.208;2022-09-09T00:02:08;4.47;;;1.70;;
21810;SDS011;11067;48.788;9.208;2022-09-09T00:04:38;3.40;;;1.67;;
21810;SDS011;11067;48.788;9.208;2022-09-09T00:12:34;2.95;;;1.60;;
21810;SDS011;11067;48.788;9.208;2022-09-09T00:25:43;2.85;;;1.55;;
21810;SDS011;11067;48.788;9.208;2022-09-09T00:28:17;2.90;;;1.40;;
21810;SDS011;11067;48.788;9.208;2022-09-09T00:30:45;2.92;;;1.38;;
21810;SDS011;11067;48.788;9.208;2022-09-09T00:33:13;5.13;;;1.60;;
21810;SDS011;11067;48.788;9.208;2022-09-09T00:35:44;3.37;;;1.60;;
21810;SDS011;11067;48.788;9.208;2022-09-09T00:38:30;4.53;;;1.75;;
21810;SDS011;11067;48.788;9.208;2022-09-09T00:41:01;4.00;;;1.90;;
21810;SDS011;11067;48.788;9.208;2022-09-09T00:43:38;4.05;;;1.70;;
21810;SDS011;11067;48.788;9.208;2022-09-09T00:48:57;5.07;;;1.35;;
21810;SDS011;11067;48.788;9.208;2022-09-09T00:51:46;4.13;;;1.60;;
21810;SDS011;11067;48.788;9.208;2022-09-09T00:54:34;3.33;;;1.58;;
21810;SDS011;11067;48.788;9.208;2022-09-09T00:57:14;4.78;;;1.80;;
21810;SDS011;11067;48.788;9.208;2022-09-09T01:06:35;5.43;;;1.85;;
21810;SDS011;11067;48.788;9.208;2022-09-09T01:14:20;4.50;;;1.50;;
21810;SDS011;11067;48.788;9.208;2022-09-09T01:17:11;2.70;;;1.60;;
21810;SDS011;11067;48.788;9.208;2022-09-09T01:28:35;5.38;;;2.00;;
21810;SDS011;11067;48.788;9.208;2022-09-09T01:31:03;3.70;;;1.58;;
21810;SDS011;11067;48.788;9.208;2022-09-09T01:33:30;6.18;;;1.73;;
21810;SDS011;11067;48.788;9.208;2022-09-09T01:36:06;4.30;;;1.67;;
21810;SDS011;11067;48.788;9.208;2022-09-09T01:38:37;4.85;;;1.80;;
21810;SDS011;11067;48.788;9.208;2022-09-09T01:41:02;5.22;;;1.83;;
21810;SDS011;11067;48.788;9.208;2022-09-09T01:43:28;3.92;;;1.80;;
21810;SDS011;11067;48.788;9.208;2022-09-09T01:45:55;5.00;;;1.77;;
21810;SDS011;11067;48.788;9.208;2022-09-09T01:48:24;4.50;;;1.20;;
21810;SDS011;11067;48.788;9.208;2022-09-09T01:50:50;2.20;;;1.20;;
21810;SDS011;11067;48.788;9.208;2022-09-09T01:53:17;5.05;;;1.45;;
21810;SDS011;11067;48.788;9.208;2022-09-09T01:56:07;3.10;;;1.15;;
21810;SDS011;11067;48.788;9.208;2022-09-09T02:04:41;2.70;;;1.35;;
21810;SDS011;11067;48.788;9.208;2022-09-09T02:10:05;2.85;;;1.13;;
21810;SDS011;11067;48.788;9.208;2022-09-09T02:12:35;2.83;;;1.30;;
21810;SDS011;11067;48.788;9.208;2022-09-09T02:15:07;6.70;;;2.60;;
21810;SDS011;11067;48.788;9.208;2022-09-09T02:17:41;5.00;;;2.00;;
21810;SDS011;11067;48.788;9.208;2022-09-09T02:20:08;4.20;;;2.30;;
21810;SDS011;11067;48.788;9.208;2022-09-09T02:22:38;4.90;;;2.20;;
21810;SDS011;11067;48.788;9.208;2022-09-09T02:25:07;6.07;;;2.22;;
21810;SDS011;11067;48.788;9.208;2022-09-09T02:27:35;4.47;;;1.58;;
21810;SDS011;11067;48.788;9.208;2022-09-09T02:30:02;1.80;;;1.20;;
21810;SDS011;11067;48.788;9.208;2022-09-09T02:32:29;2.75;;;1.17;;
21810;SDS011;11067;48.788;9.208;2022-09-09T02:35:00;3.05;;;1.40;;
21810;SDS011;11067;48.788;9.208;2022-09-09T02:37:31;3.28;;;1.48;;
21810;SDS011;11067;48.788;9.208;2022-09-09T02:40:04;4.63;;;1.27;;
21810;SDS011;11067;48.788;9.208;2022-09-09T02:42:31;4.35;;;1.35;;
21810;SDS011;11067;48.788;9.208;2022-09-09T02:44:57;3.70;;;1.17;;
21810;SDS011;11067;48.788;9.208;2022-09-09T02:49:57;3.80;;;1.20;;
21810;SDS011;11067;48.788;9.208;2022-09-09T02:58:23;1.38;;;1.00;;
21810;SDS011;11067;48.788;9.208;2022-09-09T03:00:50;3.58;;;1.40;;
21810;SDS011;11067;48.788;9.208;2022-09-09T03:03:16;4.25;;;1.00;;
21810;SDS011;11067;48.788;9.208;2022-09-09T03:05:43;1.80;;;1.00;;
21810;SDS011;11067;48.788;9.208;2022-09-09T03:08:09;6.03;;;1.15;;
21810;SDS011;11067;48.788;9.208;2022-09-09T03:10:35;2.15;;;1.02;;
21810;SDS011;11067;48.788;9.208;2022-09-09T03:13:02;1.77;;;1.27;;
21810;SDS011;11067;48.788;9.208;2022-09-09T03:15:29;1.60;;;1.20;;
21810;SDS011;11067;48.788;9.208;2022-09-09T03:17:56;1.90;;;0.90;;
21810;SDS011;11067;48.788;9.208;2022-09-09T03:20:26;2.47;;;1.10;;
21810;SDS011;11067;48.788;9.208;2022-09-09T03:22:53;4.45;;;1.00;;
21810;SDS011;11067;48.788;9.208;2022-09-09T03:25:19;2.53;;;1.60;;
21810;SDS011;11067;48.788;9.208;2022-09-09T03:27:45;5.78;;;2.10;;
21810;SDS011;11067;48.788;9.208;2022-09-09T03:30:11;6.68;;;2.25;;
21810;SDS011;11067;48.788;9.208;2022-09-09T03:32:36;4.20;;;2.17;;
21810;SDS011;11067;48.788;9.208;2022-09-09T03:35:02;5.10;;;2.07;;
21810;SDS011;11067;48.788;9.208;2022-09-09T03:37:28;4.35;;;1.92;;
21810;SDS011;11067;48.788;9.208;2022-09-09T03:39:54;3.80;;;1.80;;
21810;SDS011;11067;48.788;9.208;2022-09-09T03:42:20;5.77;;;1.97;;
21810;SDS011;11067;48.788;9.208;2022-09-09T03:44:46;7.95;;;2.47;;
21810;SDS011;11067;48.788;9.208;2022-09-09T03:47:18;6.90;;;3.00;;
21810;SDS011;11067;48.788;9.208;2022-09-09T03:49:46;7.25;;;2.15;;
21810;SDS011;11067;48.788;9.208;2022-09-09T03:52:13;5.65;;;1.90;;
21810;SDS011;11067;48.788;9.208;2022-09-09T03:54:39;4.28;;;2.50;;
21810;SDS011;11067;48.788;9.208;2022-09-09T03:57:06;4.45;;;2.17;;
21810;SDS011;11067;48.788;9.208;2022-09-09T03:59:31;4.43;;;2.15;;
21810;SDS011;11067;48.788;9.208;2022-09-09T04:01:57;5.23;;;2.17;;
21810;SDS011;11067;48.788;9.208;2022-09-09T04:04:24;9.63;;;2.75;;
21810;SDS011;11067;48.788;9.208;2022-09-09T04:06:50;5.90;;;2.33;;
21810;SDS011;11067;48.788;9.208;2022-09-09T04:09:16;6.32;;;2.10;;
21810;SDS011;11067;48.788;9.208;2022-09-09T04:11:42;6.80;;;2.13;;
21810;SDS011;11067;48.788;9.208;2022-09-09T04:14:07;8.93;;;2.67;;
21810;SDS011;11067;48.788;9.208;2022-09-09T04:16:33;4.70;;;2.10;;
21810;SDS011;11067;48.788;9.208;2022-09-09T04:19:02;4.97;;;1.80;;
21810;SDS011;11067;48.788;9.208;2022-09-09T04:21:29;4.68;;;2.20;;
21810;SDS011;11067;48.788;9.208;2022-09-09T04:23:55;4.88;;;1.77;;
21810;SDS011;11067;48.788;9.208;2022-09-09T04:26:20;2.97;;;1.77;;
21810;SDS011;11067;48.788;9.208;2022-09-09T04:28:46;3.03;;;1.93;;
21810;SDS011;11067;48.788;9.208;2022-09-09T04:31:16;7.13;;;1.80;;
21810;SDS011;11067;48.788;9.208;2022-09-09T04:33:43;4.33;;;1.73;;
21810;SDS011;11067;48.788;9.208;2022-09-09T04:36:09;2.60;;;1.50;;
21810;SDS011;11067;48.788;9.208;2022-09-09T04:38:35;6.23;;;2.00;;
21810;SDS011;11067;48.788;9.208;2022-09-09T04:41:01;5.60;;;2.00;;
21810;SDS011;11067;48.788;9.208;2022-09-09T04:43:26;4.13;;;2.33;;
21810;SDS011;11067;48.788;9.208;2022-09-09T04:45:52;4.43;;;2.42;;
21810;SDS011;11067;48.788;9.208;2022-09-09T04:48:19;8.45;;;2.40;;
21810;SDS011;11067;48.788;9.208;2022-09-09T04:50:58;5.97;;;2.10;;
21810;SDS011;11067;48.788;9.208;2022-09-09T04:53:25;4.68;;;2.40;;
21810;SDS011;11067;48.788;9.208;2022-09-09T04:56:12;4.20;;;2.28;;
21810;SDS011;11067;48.788;9.208;2022-09-09T04:58:38;7.22;;;2.42;;
21810;SDS011;11067;48.788;9.208;2022-09-09T05:01:05;4.47;;;2.25;;
21810;SDS011;11067;48.788;9.208;2022-09-09T05:03:32;4.83;;;2.30;;
21810;SDS011;11067;48.788;9.208;2022-09-09T05:06:04;4.70;;;2.20;;
21810;SDS011;11067;48.788;9.208;2022-09-09T05:08:32;4.20;;;2.20;;
21810;SDS011;11067;48.788;9.208;2022-09-09T05:10:57;6.20;;;2.27;;
21810;SDS011;11067;48.788;9.208;2022-09-09T05:13:24;4.63;;;2.15;;
21810;SDS011;11067;48.788;9.208;2022-09-09T05:15:52;7.28;;;2.33;;
21810;SDS011;11067;48.788;9.208;2022-09-09T05:18:18;4.55;;;2.22;;
21810;SDS011;11067;48.788;9.208;2022-09-09T05:20:43;4.82;;;2.22;;
21810;SDS011;11067;48.788;9.208;2022-09-09T05:23:09;5.07;;;1.80;;
21810;SDS011;11067;48.788;9.208;2022-09-09T05:25:38;5.80;;;1.90;;
21810;SDS011;11067;48.788;9.208;2022-09-09T05:28:05;5.93;;;2.20;;
21810;SDS011;11067;48.788;9.208;2022-09-09T05:30:32;5.13;;;2.47;;
21810;SDS011;11067;48.788;9.208;2022-09-09T05:32:57;6.67;;;2.57;;
21810;SDS011;11067;48.788;9.208;2022-09-09T05:35:23;3.55;;;1.95;;
21810;SDS011;11067;48.788;9.208;2022-09-09T05:37:48;4.83;;;2.00;;
21810;SDS011;11067;48.788;9.208;2022-09-09T05:40:14;6.80;;;2.40;;
21810;SDS011;11067;48.788;9.208;2022-09-09T05:42:40;8.35;;;2.28;;
21810;SDS011;11067;48.788;9.208;2022-09-09T05:45:06;7.57;;;2.20;;
21810;SDS011;11067;48.788;9.208;2022-09-09T05:47:33;4.50;;;2.10;;
21810;SDS011;11067;48.788;9.208;2022-09-09T05:50:00;7.90;;;2.50;;
21810;SDS011;11067;48.788;9.208;2022-09-09T05:52:26;9.80;;;2.50;;
21810;SDS011;11067;48.788;9.208;2022-09-09T05:54:52;5.03;;;2.55;;
21810;SDS011;11067;48.788;9.208;2022-09-09T05:57:19;10.40;;;3.08;;
21810;SDS011;11067;48.788;9.208;2022-09-09T05:59:45;9.82;;;3.58;;
21810;SDS011;11067;48.788;9.208;2022-09-09T06:02:10;8.32;;;3.00;;
21810;SDS011;11067;48.788;9.208;2022-09-09T06:04:37;7.18;;;2.78;;
21810;SDS011;11067;48.788;9.208;2022-09-09T06:07:03;4.30;;;2.30;;
21810;SDS011;11067;48.788;9.208;2022-09-09T06:09:29;5.90;;;2.07;;
21810;SDS011;11067;48.788;9.208;2022-09-09T06:11:55;3.73;;;2.17;;
21810;SDS011;11067;48.788;9.208;2022-09-09T06:14:23;7.18;;;2.33;;
21810;SDS011;11067;48.788;9.208;2022-09-09T06:16:50;8.35;;;2.35;;
21810;SDS011;11067;48.788;9.208;2022-09-09T06:19:16;7.22;;;2.20;;
21810;SDS011;11067;48.788;9.208;2022-09-09T06:21:41;6.80;;;2.47;;
21810;SDS011;11067;48.788;9.208;2022-09-09T06:24:07;7.18;;;2.05;;
21810;SDS011;11067;48.788;9.208;2022-09-09T06:26:34;3.80;;;1.87;;
21810;SDS011;11067;48.788;9.208;2022-09-09T06:29:01;5.45;;;2.17;;
21810;SDS011;11067;48.788;9.208;2022-09-09T06:31:29;8.50;;;1.70;;
21810;SDS011;11067;48.788;9.208;2022-09-09T06:33:57;4.38;;;1.75;;
21810;SDS011;11067;48.788;9.208;2022-09-09T06:36:30;5.95;;;1.98;;
21810;SDS011;11067;48.788;9.208;2022-09-09T06:38:57;7.63;;;1.90;;
21810;SDS011;11067;48.788;9.208;2022-09-09T06:41:24;3.40;;;1.55;;
21810;SDS011;11067;48.788;9.208;2022-09-09T06:43:52;3.65;;;1.67;;
21810;SDS011;11067;48.788;9.208;2022-09-09T06:46:22;3.55;;;1.30;;
21810;SDS011;11067;48.788;9.208;2022-09-09T06:48:56;2.77;;;1.73;;
21810;SDS011;11067;48.788;9.208;2022-09-09T06:51:22;3.95;;;1.70;;
21810;SDS011;11067;48.788;9.208;2022-09-09T06:53:52;3.15;;;1.80;;
21810;SDS011;11067;48.788;9.208;2022-09-09T06:56:21;6.18;;;1.80;;
21810;SDS011;11067;48.788;9.208;2022-09-09T06:58:53;5.67;;;1.97;;
21810;SDS011;11067;48.788;9.208;2022-09-09T07:01:20;3.88;;;2.20;;
21810;SDS011;11067;48.788;9.208;2022-09-09T07:03:54;5.60;;;2.30;;
21810;SDS011;11067;48.788;9.208;2022-09-09T07:06:22;6.07;;;2.37;;
21810;SDS011;11067;48.788;9.208;2022-09-09T07:08:52;4.43;;;2.20;;
21810;SDS011;11067;48.788;9.208;2022-09-09T07:11:20;5.82;;;2.35;;
21810;SDS011;11067;48.788;9.208;2022-09-09T07:13:47;4.75;;;2.30;;
21810;SDS011;11067;48.788;9.208;2022-09-09T07:16:15;4.57;;;2.13;;
21810;SDS011;11067;48.788;9.208;2022-09-09T07:18:42;6.97;;;2.42;;
21810;SDS011;11067;48.788;9.208;2022-09-09T07:21:09;7.60;;;2.50;;
21810;SDS011;11067;48.788;9.208;2022-09-09T07:23:37;6.70;;;2.47;;
21810;SDS011;11067;48.788;9.208;2022-09-09T07:26:07;6.15;;;2.67;;
21810;SDS011;11067;48.788;9.208;2022-09-09T07:28:38;4.30;;;2.47;;
21810;SDS011;11067;48.788;9.208;2022-09-09T07:31:04;5.63;;;2.23;;
21810;SDS011;11067;48.788;9.208;2022-09-09T07:33:31;6.13;;;2.50;;
21810;SDS011;11067;48.788;9.208;2022-09-09T07:36:12;5.00;;;2.10;;
21810;SDS011;11067;48.788;9.208;2022-09-09T07:38:53;7.37;;;2.40;;
21810;SDS011;11067;48.788;9.208;2022-09-09T07:41:21;3.58;;;2.05;;
21810;SDS011;11067;48.788;9.208;2022-09-09T07:43:49;4.70;;;2.13;;
21810;SDS011;11067;48.788;9.208;2022-09-09T07:46:17;4.15;;;1.90;;
21810;SDS011;11067;48.788;9.208;2022-09-09T07:48:51;6.00;;;1.85;;
21810;SDS011;11067;48.788;9.208;2022-09-09T07:51:20;4.30;;;1.90;;
21810;SDS011;11067;48.788;9.208;2022-09-09T07:53:48;5.18;;;2.30;;
21810;SDS011;11067;48.788;9.208;2022-09-09T07:56:17;9.07;;;2.10;;
21810;SDS011;11067;48.788;9.208;2022-09-09T07:58:46;8.45;;;2.20;;
21810;SDS011;11067;48.788;9.208;2022-09-09T08:01:13;2.57;;;1.70;;
21810;SDS011;11067;48.788;9.208;2022-09-09T08:03:43;3.07;;;1.80;;
21810;SDS011;11067;48.788;9.208;2022-09-09T08:06:10;7.63;;;1.98;;
21810;SDS011;11067;48.788;9.208;2022-09-09T08:08:37;3.33;;;1.60;;
21810;SDS011;11067;48.788;9.208;2022-09-09T08:11:09;1.63;;;1.20;;
21810;SDS011;11067;48.788;9.208;2022-09-09T08:13:37;2.90;;;1.40;;
21810;SDS011;11067;48.788;9.208;2022-09-09T08:18:33;3.47;;;1.15;;
21810;SDS011;11067;48.788;9.208;2022-09-09T08:21:04;3.20;;;1.17;;
21810;SDS011;11067;48.788;9.208;2022-09-09T08:23:36;3.83;;;1.25;;
21810;SDS011;11067;48.788;9.208;2022-09-09T08:26:04;2.27;;;1.10;;
21810;SDS011;11067;48.788;9.208;2022-09-09T08:28:31;2.78;;;0.90;;
21810;SDS011;11067;48.788;9.208;2022-09-09T08:31:04;2.20;;;1.20;;
21810;SDS011;11067;48.788;9.208;2022-09-09T08:33:31;2.80;;;1.00;;
21810;SDS011;11067;48.788;9.208;2022-09-09T08:35:58;2.67;;;1.13;;
21810;SDS011;11067;48.788;9.208;2022-09-09T08:38:24;3.03;;;1.20;;
21810;SDS011;11067;48.788;9.208;2022-09-09T08:40:49;3.37;;;0.93;;
21810;SDS011;11067;48.788;9.208;2022-09-09T08:43:20;4.38;;;1.40;;
21810;SDS011;11067;48.788;9.208;2022-09-09T08:45:54;4.05;;;1.30;;
21810;SDS011;11067;48.788;9.208;2022-09-09T08:48:32;2.13;;;0.95;;
21810;SDS011;11067;48.788;9.208;2022-09-09T08:51:10;3.87;;;1.27;;
21810;SDS011;11067;48.788;9.208;2022-09-09T08:53:42;3.53;;;1.30;;
21810;SDS011;11067;48.788;9.208;2022-09-09T08:56:12;3.40;;;1.20;;
21810;SDS011;11067;48.788;9.208;2022-09-09T08:58:43;3.58;;;1.13;;
21810;SDS011;11067;48.788;9.208;2022-09-09T09:10:12;3.00;;;1.10;;
21810;SDS011;11067;48.788;9.208;2022-09-09T09:12:55;3.55;;;1.10;;
21810;SDS011;11067;48.788;9.208;2022-09-09T09:15:23;4.00;;;0.93;;
21810;SDS011;11067;48.788;9.208;2022-09-09T09:18:01;3.65;;;1.20;;
21810;SDS011;11067;48.788;9.208;2022-09-09T09:20:50;2.38;;;0.90;;
21810;SDS011;11067;48.788;9.208;2022-09-09T09:23:33;3.72;;;1.02;;
21810;SDS011;11067;48.788;9.208;2022-09-09T09:26:09;2.70;;;1.10;;
21810;SDS011;11067;48.788;9.208;2022-09-09T09:28:38;6.75;;;1.10;;
21810;SDS011;11067;48.788;9.208;2022-09-09T09:31:05;4.30;;;1.08;;
21810;SDS011;11067;48.788;9.208;2022-09-09T09:33:40;1.83;;;0.93;;
21810;SDS011;11067;48.788;9.208;2022-09-09T09:36:12;2.10;;;1.08;;
21810;SDS011;11067;48.788;9.208;2022-09-09T09:38:40;2.37;;;1.00;;
21810;SDS011;11067;48.788;9.208;2022-09-09T09:41:35;2.95;;;0.80;;
21810;SDS011;11067;48.788;9.208;2022-09-09T09:44:05;1.70;;;1.02;;
21810;SDS011;11067;48.788;9.208;2022-09-09T09:46:46;6.95;;;1.38;;
21810;SDS011;11067;48.788;9.208;2022-09-09T09:49:11;1.83;;;1.00;;
21810;SDS011;11067;48.788;9.208;2022-09-09T09:51:38;2.03;;;1.00;;
21810;SDS011;11067;48.788;9.208;2022-09-09T09:54:08;1.25;;;0.82;;
21810;SDS011;11067;48.788;9.208;2022-09-09T09:56:43;2.05;;;0.80;;
21810;SDS011;11067;48.788;9.208;2022-09-09T09:59:20;2.85;;;1.02;;
21810;SDS011;11067;48.788;9.208;2022-09-09T10:01:48;1.50;;;0.88;;
21810;SDS011;11067;48.788;9.208;2022-09-09T10:04:16;2.17;;;0.80;;
21810;SDS011;11067;48.788;9.208;2022-09-09T10:06:48;3.20;;;1.30;;
21810;SDS011;11067;48.788;9.208;2022-09-09T10:09:28;3.70;;;1.40;;
21810;SDS011;11067;48.788;9.208;2022-09-09T10:12:15;2.30;;;0.90;;
21810;SDS011;11067;48.788;9.208;2022-09-09T10:20:35;1.70;;;1.00;;
21810;SDS011;11067;48.788;9.208;2022-09-09T10:31:04;1.85;;;1.00;;
21810;SDS011;11067;48.788;9.208;2022-09-09T10:34:03;4.28;;;1.10;;
21810;SDS011;11067;48.788;9.208;2022-09-09T10:36:46;2.53;;;1.13;;
21810;SDS011;11067;48.788;9.208;2022-09-09T10:42:04;2.47;;;1.02;;
21810;SDS011;11067;48.788;9.208;2022-09-09T10:44:46;1.90;;;1.30;;
21810;SDS011;11067;48.788;9.208;2022-09-09T10:47:30;3.00;;;1.30;;
21810;SDS011;11067;48.788;9.208;2022-09-09T10:50:26;3.50;;;1.27;;
21810;SDS011;11067;48.788;9.208;2022-09-09T10:53:14;2.30;;;1.10;;
21810;SDS011;11067;48.788;9.208;2022-09-09T10:55:45;4.53;;;1.20;;
21810;SDS011;11067;48.788;9.208;2022-09-09T10:58:28;3.40;;;1.30;;
21810;SDS011;11067;48.788;9.208;2022-09-09T11:01:00;3.08;;;1.30;;
21810;SDS011;11067;48.788;9.208;2022-09-09T11:03:34;2.20;;;1.00;;
21810;SDS011;11067;48.788;9.208;2022-09-09T11:06:05;3.50;;;1.20;;
21810;SDS011;11067;48.788;9.208;2022-09-09T11:08:38;2.38;;;0.95;;
21810;SDS011;11067;48.788;9.208;2022-09-09T11:11:12;4.60;;;1.20;;
21810;SDS011;11067;48.788;9.208;2022-09-09T11:14:01;4.00;;;1.20;;
21810;SDS011;11067;48.788;9.208;2022-09-09T11:19:36;5.35;;;1.48;;
21810;SDS011;11067;48.788;9.208;2022-09-09T11:22:06;2.53;;;1.02;;
21810;SDS011;11067;48.788;9.208;2022-09-09T11:24:37;1.45;;;0.85;;
21810;SDS011;11067;48.788;9.208;2022-09-09T11:27:11;3.92;;;0.80;;
21810;SDS011;11067;48.788;9.208;2022-09-09T11:32:59;2.80;;;0.80;;
21810;SDS011;11067;48.788;9.208;2022-09-09T11:35:47;0.88;;;0.52;;
21810;SDS011;11067;48.788;9.208;2022-09-09T11:38:45;1.60;;;1.00;;
21810;SDS011;11067;48.788;9.208;2022-09-09T11:41:12;2.60;;;1.05;;
21810;SDS011;11067;48.788;9.208;2022-09-09T11:43:40;1.77;;;0.73;;
21810;SDS011;11067;48.788;9.208;2022-09-09T11:46:11;2.00;;;0.70;;
21810;SDS011;11067;48.788;9.208;2022-09-09T11:48:43;1.52;;;0.77;;
21810;SDS011;11067;48.788;9.208;2022-09-09T11:51:34;0.93;;;0.55;;
21810;SDS011;11067;48.788;9.208;2022-09-09T11:54:25;1.73;;;0.88;;
21810;SDS011;11067;48.788;9.208;2022-09-09T11:56:54;3.35;;;0.77;;
21810;SDS011;11067;48.788;9.208;2022-09-09T11:59:20;4.07;;;0.80;;
21810;SDS011;11067;48.788;9.208;2022-09-09T12:02:01;1.52;;;0.85;;
21810;SDS011;11067;48.788;9.208;2022-09-09T12:05:05;1.95;;;0.70;;
21810;SDS011;11067;48.788;9.208;2022-09-09T12:07:52;1.88;;;0.65;;
21810;SDS011;11067;48.788;9.208;2022-09-09T12:10:29;1.35;;;0.60;;
21810;SDS011;11067;48.788;9.208;2022-09-09T12:15:47;2.80;;;0.75;;
21810;SDS011;11067;48.788;9.208;2022-09-09T12:18:18;0.82;;;0.55;;
21810;SDS011;11067;48.788;9.208;2022-09-09T12:21:03;0.30;;;0.25;;
21810;SDS011;11067;48.788;9.208;2022-09-09T12:23:40;0.60;;;0.50;;
21810;SDS011;11067;48.788;9.208;2022-09-09T12:34:44;1.60;;;0.43;;
21810;SDS011;11067;48.788;9.208;2022-09-09T12:40:24;1.15;;;0.73;;
21810;SDS011;11067;48.788;9.208;2022-09-09T12:42:48;1.30;;;0.60;;
21810;SDS011;11067;48.788;9.208;2022-09-09T12:47:50;0.40;;;0.40;;
21810;SDS011;11067;48.788;9.208;2022-09-09T12:50:21;1.17;;;0.45;;
21810;SDS011;11067;48.788;9.208;2022-09-09T12:52:50;0.60;;;0.40;;
21810;SDS011;11067;48.788;9.208;2022-09-09T12:55:19;0.93;;;0.55;;
21810;SDS011;11067;48.788;9.208;2022-09-09T12:57:50;1.63;;;0.63;;
21810;SDS011;11067;48.788;9.208;2022-09-09T13:02:50;1.60;;;0.55;;
21810;SDS011;11067;48.788;9.208;2022-09-09T13:05:19;0.82;;;0.60;;
21810;SDS011;11067;48.788;9.208;2022-09-09T13:07:48;1.33;;;0.60;;
21810;SDS011;11067;48.788;9.208;2022-09-09T13:10:15;1.53;;;0.73;;
21810;SDS011;11067;48.788;9.208;2022-09-09T13:12:53;1.20;;;0.60;;
21810;SDS011;11067;48.788;9.208;2022-09-09T13:15:21;0.83;;;0.60;;
21810;SDS011;11067;48.788;9.208;2022-09-09T13:17:59;2.90;;;0.80;;
21810;SDS011;11067;48.788;9.208;2022-09-09T13:20:29;1.20;;;0.60;;
21810;SDS011;11067;48.788;9.208;2022-09-09T13:22:56;1.87;;;0.83;;
21810;SDS011;11067;48.788;9.208;2022-09-09T13:25:26;3.63;;;0.90;;
21810;SDS011;11067;48.788;9.208;2022-09-09T13:28:00;4.50;;;0.95;;
21810;SDS011;11067;48.788;9.208;2022-09-09T13:30:36;1.08;;;0.70;;
21810;SDS011;11067;48.788;9.208;2022-09-09T13:35:31;0.70;;;0.47;;
21810;SDS011;11067;48.788;9.208;2022-09-09T13:37:58;3.45;;;0.80;;
21810;SDS011;11067;48.788;9.208;2022-09-09T13:40:31;3.70;;;0.90;;
21810;SDS011;11067;48.788;9.208;2022-09-09T13:42:57;1.85;;;1.00;;
21810;SDS011;11067;48.788;9.208;2022-09-09T13:45:24;3.17;;;0.60;;
21810;SDS011;11067;48.788;9.208;2022-09-09T13:47:53;1.65;;;0.70;;
21810;SDS011;11067;48.788;9.208;2022-09-09T13:52:48;2.33;;;0.70;;
21810;SDS011;11067;48.788;9.208;2022-09-09T13:55:18;4.03;;;0.73;;
21810;SDS011;11067;48.788;9.208;2022-09-09T13:57:50;2.17;;;0.63;;
21810;SDS011;11067;48.788;9.208;2022-09-09T14:00:19;1.53;;;0.63;;
21810;SDS011;11067;48.788;9.208;2022-09-09T14:02:45;1.70;;;0.52;;
21810;SDS011;11067;48.788;9.208;2022-09-09T14:05:11;1.67;;;0.70;;
21810;SDS011;11067;48.788;9.208;2022-09-09T14:07:37;1.30;;;0.50;;
21810;SDS011;11067;48.788;9.208;2022-09-09T14:10:05;1.73;;;0.75;;
21810;SDS011;11067;48.788;9.208;2022-09-09T14:12:31;1.42;;;0.60;;
21810;SDS011;11067;48.788;9.208;2022-09-09T14:14:56;2.83;;;0.80;;
21810;SDS011;11067;48.788;9.208;2022-09-09T14:17:22;2.28;;;0.70;;
21810;SDS011;11067;48.788;9.208;2022-09-09T14:19:47;1.43;;;0.80;;
21810;SDS011;11067;48.788;9.208;2022-09-09T14:22:13;1.03;;;0.50;;
21810;SDS011;11067;48.788;9.208;2022-09-09T14:24:39;0.53;;;0.50;;
21810;SDS011;11067;48.788;9.208;2022-09-09T14:27:05;2.40;;;0.90;;
21810;SDS011;11067;48.788;9.208;2022-09-09T14:29:31;1.67;;;0.70;;
21810;SDS011;11067;48.788;9.208;2022-09-09T14:31:58;1.33;;;0.80;;
21810;SDS011;11067;48.788;9.208;2022-09-09T14:34:25;0.73;;;0.53;;
21810;SDS011;11067;48.788;9.208;2022-09-09T14:36:51;1.65;;;0.77;;
21810;SDS011;11067;48.788;9.208;2022-09-09T14:39:17;2.17;;;0.60;;
21810;SDS011;11067;48.788;9.208;2022-09-09T14:41:42;2.40;;;0.70;;
21810;SDS011;11067;48.788;9.208;2022-09-09T14:44:08;1.57;;;0.60;;
21810;SDS011;11067;48.788;9.208;2022-09-09T14:46:33;1.33;;;0.50;;
21810;SDS011;11067;48.788;9.208;2022-09-09T14:48:59;1.80;;;0.60;;
21810;SDS011;11067;48.788;9.208;2022-09-09T14:51:25;1.38;;;0.80;;
21810;SDS011;11067;48.788;9.208;2022-09-09T14:53:52;2.22;;;0.47;;
21810;SDS011;11067;48.788;9.208;2022-09-09T14:56:25;1.55;;;0.70;;
21810;SDS011;11067;48.788;9.208;2022-09-09T14:58:53;1.93;;;0.87;;
21810;SDS011;11067;48.788;9.208;2022-09-09T15:01:22;2.97;;;0.63;;
21810;SDS011;11067;48.788;9.208;2022-09-09T15:03:52;1.02;;;0.50;;
21810;SDS011;11067;48.788;9.208;2022-09-09T15:06:22;2.30;;;0.55;;
21810;SDS011;11067;48.788;9.208;2022-09-09T15:08:49;1.20;;;0.50;;
21810;SDS011;11067;48.788;9.208;2022-09-09T15:11:16;1.98;;;0.57;;
21810;SDS011;11067;48.788;9.208;2022-09-09T15:13:42;1.80;;;0.50;;
21810;SDS011;11067;48.788;9.208;2022-09-09T15:16:16;1.33;;;0.57;;
21810;SDS011;11067;48.788;9.208;2022-09-09T15:18:42;1.73;;;0.65;;
21810;SDS011;11067;48.788;9.208;2022-09-09T15:21:10;1.80;;;0.50;;
21810;SDS011;11067;48.788;9.208;2022-09-09T15:23:40;1.67;;;0.80;;
21810;SDS011;11067;48.788;9.208;2022-09-09T15:26:06;1.85;;;0.80;;
21810;SDS011;11067;48.788;9.208;2022-09-09T15:28:32;1.30;;;0.70;;
21810;SDS011;11067;48.788;9.208;2022-09-09T15:31:09;1.20;;;0.50;;
21810;SDS011;11067;48.788;9.208;2022-09-09T15:33:39;1.70;;;0.70;;
21810;SDS011;11067;48.788;9.208;2022-09-09T15:36:15;3.25;;;0.70;;
21810;SDS011;11067;48.788;9.208;2022-09-09T15:38:48;1.05;;;0.63;;
21810;SDS011;11067;48.788;9.208;2022-09-09T15:41:14;1.30;;;0.65;;
21810;SDS011;11067;48.788;9.208;2022-09-09T15:43:45;1.73;;;0.63;;
21810;SDS011;11067;48.788;9.208;2022-09-09T15:48:55;1.73;;;0.80;;
21810;SDS011;11067;48.788;9.208;2022-09-09T15:51:23;1.45;;;0.65;;
21810;SDS011;11067;48.788;9.208;2022-09-09T15:53:56;1.47;;;0.83;;
21810;SDS011;11067;48.788;9.208;2022-09-09T15:56:23;3.85;;;0.90;;
21810;SDS011;11067;48.788;9.208;2022-09-09T15:58:53;3.42;;;1.10;;
21810;SDS011;11067;48.788;9.208;2022-09-09T16:01:20;3.27;;;0.80;;
21810;SDS011;11067;48.788;9.208;2022-09-09T16:03:45;2.05;;;0.60;;
21810;SDS011;11067;48.788;9.208;2022-09-09T16:06:12;5.82;;;1.10;;
21810;SDS011;11067;48.788;9.208;2022-09-09T16:08:40;1.20;;;0.70;;
21810;SDS011;11067;48.788;9.208;2022-09-09T16:11:17;1.90;;;0.82;;
21810;SDS011;11067;48.788;9.208;2022-09-09T16:13:47;2.60;;;0.85;;
21810;SDS011;11067;48.788;9.208;2022-09-09T16:16:14;4.25;;;1.10;;
21810;SDS011;11067;48.788;9.208;2022-09-09T16:18:42;2.83;;;0.60;;
21810;SDS011;11067;48.788;9.208;2022-09-09T16:21:12;1.92;;;0.50;;
21810;SDS011;11067;48.788;9.208;2022-09-09T16:23:46;0.90;;;0.60;;
21810;SDS011;11067;48.788;9.208;2022-09-09T16:26:13;0.93;;;0.80;;
21810;SDS011;11067;48.788;9.208;2022-09-09T16:28:40;1.88;;;0.70;;
21810;SDS011;11067;48.788;9.208;2022-09-09T16:31:07;1.65;;;0.82;;
21810;SDS011;11067;48.788;9.208;2022-09-09T16:33:35;0.77;;;0.53;;
21810;SDS011;11067;48.788;9.208;2022-09-09T16:36:04;2.03;;;1.02;;
21810;SDS011;11067;48.788;9.208;2022-09-09T16:38:31;1.10;;;0.80;;
21810;SDS011;11067;48.788;9.208;2022-09-09T16:41:01;2.33;;;0.75;;
21810;SDS011;11067;48.788;9.208;2022-09-09T16:43:29;1.70;;;0.73;;
21810;SDS011;11067;48.788;9.208;2022-09-09T16:45:54;2.07;;;0.90;;
21810;SDS011;11067;48.788;9.208;2022-09-09T16:48:20;2.70;;;0.97;;
21810;SDS011;11067;48.788;9.208;2022-09-09T16:50:45;1.13;;;0.50;;
21810;SDS011;11067;48.788;9.208;2022-09-09T16:53:11;1.23;;;0.53;;
21810;SDS011;11067;48.788;9.208;2022-09-09T16:55:40;0.70;;;0.40;;
21810;SDS011;11067;48.788;9.208;2022-09-09T16:58:07;0.70;;;0.40;;
21810;SDS011;11067;48.788;9.208;2022-09-09T17:00:35;0.75;;;0.40;;
21810;SDS011;11067;48.788;9.208;2022-09-09T17:03:00;1.10;;;0.50;;
21810;SDS011;11067;48.788;9.208;2022-09-09T17:05:26;0.35;;;0.35;;